createdAt,value
2019-02-10T00:01:52.623Z,10.90
2019-02-10T00:03:57.552Z,10.90
2019-02-10T00:06:02.646Z,10.90
2019-02-10T00:08:07.752Z,10.90
2019-02-10T00:10:12.875Z,10.90
2019-02-10T00:12:17.864Z,10.90
2019-02-10T00:14:22.872Z,10.90
2019-02-10T00:16:27.928Z,10.90
2019-02-10T00:18:33.023Z,11.00
2019-02-10T00:20:38.235Z,11.00
2019-02-10T00:22:43.187Z,10.90
2019-02-10T00:24:48.237Z,11.00
2019-02-10T00:26:53.147Z,11.00
2019-02-10T00:28:58.174Z,11.00
2019-02-10T00:31:03.205Z,11.00
2019-02-10T00:33:08.187Z,11.00
2019-02-10T00:35:13.381Z,11.00
2019-02-10T00:37:18.545Z,11.00
2019-02-10T00:39:23.653Z,11.00
2019-02-10T00:41:28.749Z,11.00
2019-02-10T00:43:33.767Z,11.00
2019-02-10T00:45:38.832Z,11.00
2019-02-10T00:47:43.756Z,11.00
2019-02-10T00:49:48.754Z,11.00
2019-02-10T00:51:53.826Z,11.00
2019-02-10T00:53:58.911Z,11.00
2019-02-10T00:56:04.064Z,11.00
2019-02-10T00:58:09.085Z,11.00
2019-02-10T01:00:14.712Z,11.00
2019-02-10T01:02:19.795Z,11.00
2019-02-10T01:04:24.916Z,11.00
2019-02-10T01:06:30.150Z,11.00
2019-02-10T01:08:35.268Z,11.00
2019-02-10T01:10:40.188Z,11.00
2019-02-10T01:12:45.359Z,11.00
2019-02-10T01:14:50.280Z,11.00
2019-02-10T01:16:55.346Z,11.00
2019-02-10T01:19:09.700Z,11.00
2019-02-10T01:21:14.715Z,11.00
2019-02-10T01:23:19.818Z,11.00
2019-02-10T01:25:25.042Z,11.00
2019-02-10T01:27:30.143Z,11.00
2019-02-10T01:29:35.315Z,11.00
2019-02-10T01:31:40.372Z,11.00
2019-02-10T01:33:45.403Z,11.00
2019-02-10T01:35:50.441Z,11.00
2019-02-10T01:37:55.598Z,11.00
2019-02-10T01:40:00.590Z,11.10
2019-02-10T01:42:06.030Z,11.10
2019-02-10T01:44:11.021Z,11.00
2019-02-10T01:46:16.007Z,11.10
2019-02-10T01:48:21.074Z,11.10
2019-02-10T01:50:26.195Z,11.10
2019-02-10T01:52:31.208Z,11.00
2019-02-10T01:54:36.141Z,11.10
2019-02-10T01:56:41.060Z,11.00
2019-02-10T01:58:46.038Z,11.10
2019-02-10T02:00:51.122Z,11.10
2019-02-10T02:02:56.273Z,11.10
2019-02-10T02:05:01.506Z,11.10
2019-02-10T02:07:06.646Z,11.10
2019-02-10T02:09:13.616Z,11.10
2019-02-10T02:11:18.718Z,11.10
2019-02-10T02:13:23.737Z,11.10
2019-02-10T02:15:28.731Z,11.10
2019-02-10T02:17:33.803Z,11.10
2019-02-10T02:19:38.909Z,11.10
2019-02-10T02:21:44.295Z,11.00
2019-02-10T02:23:49.378Z,11.10
2019-02-10T02:25:54.618Z,11.10
2019-02-10T02:27:59.738Z,11.00
2019-02-10T02:30:07.250Z,11.00
2019-02-10T02:32:12.324Z,11.00
2019-02-10T02:34:17.285Z,11.00
2019-02-10T02:36:22.247Z,11.00
2019-02-10T02:38:27.203Z,11.00
2019-02-10T02:40:32.306Z,11.00
2019-02-10T02:42:37.395Z,11.00
2019-02-10T02:44:42.483Z,11.00
2019-02-10T02:46:47.491Z,11.00
2019-02-10T02:48:52.511Z,11.00
2019-02-10T02:50:57.498Z,10.90
2019-02-10T02:53:02.429Z,10.90
2019-02-10T02:55:08.630Z,10.90
2019-02-10T02:57:13.737Z,10.90
2019-02-10T02:59:18.809Z,10.90
2019-02-10T03:01:23.744Z,10.90
2019-02-10T03:03:28.708Z,10.90
2019-02-10T03:05:33.812Z,10.90
2019-02-10T03:07:38.867Z,10.90
2019-02-10T03:09:43.877Z,10.90
2019-02-10T03:11:48.903Z,10.90
2019-02-10T03:13:53.854Z,10.90
2019-02-10T03:15:58.868Z,10.90
2019-02-10T03:18:04.878Z,10.90
2019-02-10T03:20:10.124Z,10.90
2019-02-10T03:22:15.364Z,10.90
2019-02-10T03:24:20.288Z,10.90
2019-02-10T03:26:25.249Z,10.90
2019-02-10T03:28:30.469Z,10.90
2019-02-10T03:30:35.449Z,10.90
2019-02-10T03:32:40.571Z,10.80
2019-02-10T03:34:45.685Z,10.90
2019-02-10T03:36:50.625Z,10.80
2019-02-10T03:38:55.676Z,10.80
2019-02-10T03:41:01.033Z,10.80
2019-02-10T03:43:06.091Z,10.80
2019-02-10T03:45:11.380Z,10.80
2019-02-10T03:47:16.402Z,10.80
2019-02-10T03:49:21.660Z,10.80
2019-02-10T03:51:26.731Z,10.70
2019-02-10T03:53:31.650Z,10.70
2019-02-10T03:55:36.809Z,10.70
2019-02-10T03:57:41.771Z,10.70
2019-02-10T03:59:46.944Z,10.70
2019-02-10T04:01:52.052Z,10.70
2019-02-10T04:03:56.986Z,10.70
2019-02-10T04:06:02.050Z,10.70
2019-02-10T04:08:06.975Z,10.60
2019-02-10T04:10:12.445Z,10.60
2019-02-10T04:12:17.347Z,10.60
2019-02-10T04:14:22.295Z,10.60
2019-02-10T04:16:27.274Z,10.60
2019-02-10T04:18:32.362Z,10.60
2019-02-10T04:20:37.277Z,10.60
2019-02-10T04:22:42.396Z,10.60
2019-02-10T04:24:47.409Z,10.60
2019-02-10T04:26:52.359Z,10.60
2019-02-10T04:28:57.414Z,10.60
2019-02-10T04:31:02.357Z,10.60
2019-02-10T04:33:07.342Z,10.60
2019-02-10T04:35:12.420Z,10.60
2019-02-10T04:37:17.438Z,10.60
2019-02-10T04:39:22.461Z,10.60
2019-02-10T04:41:27.413Z,10.60
2019-02-10T04:43:32.391Z,10.60
2019-02-10T04:45:37.347Z,10.60
2019-02-10T04:47:42.328Z,10.60
2019-02-10T04:49:47.267Z,10.60
2019-02-10T04:51:52.206Z,10.60
2019-02-10T04:53:57.191Z,10.60
2019-02-10T04:56:14.488Z,10.60
2019-02-10T04:58:19.583Z,10.60
2019-02-10T05:00:24.637Z,10.60
2019-02-10T05:02:29.726Z,10.60
2019-02-10T05:04:34.933Z,10.60
2019-02-10T05:06:40.002Z,10.60
2019-02-10T05:08:45.085Z,10.60
2019-02-10T05:10:50.139Z,10.60
2019-02-10T05:12:55.116Z,10.60
2019-02-10T05:15:00.033Z,10.60
2019-02-10T05:17:05.154Z,10.60
2019-02-10T05:19:10.144Z,10.60
2019-02-10T05:21:15.119Z,10.60
2019-02-10T05:23:20.201Z,10.60
2019-02-10T05:25:25.211Z,10.60
2019-02-10T05:27:30.250Z,10.60
2019-02-10T05:29:35.251Z,10.60
2019-02-10T05:31:40.312Z,10.60
2019-02-10T05:33:45.358Z,10.60
2019-02-10T05:35:50.368Z,10.60
2019-02-10T05:38:03.517Z,10.60
2019-02-10T05:40:02.048Z,10.60
2019-02-10T05:42:07.067Z,10.60
2019-02-10T05:44:12.179Z,10.60
2019-02-10T05:46:17.124Z,10.60
2019-02-10T05:48:22.124Z,10.60
2019-02-10T05:50:27.131Z,10.60
2019-02-10T05:52:32.078Z,10.60
2019-02-10T05:54:37.139Z,10.60
2019-02-10T05:56:42.127Z,10.60
2019-02-10T05:58:47.027Z,10.60
2019-02-10T06:00:52.106Z,10.60
2019-02-10T06:02:57.165Z,10.60
2019-02-10T06:05:26.177Z,10.60
2019-02-10T06:07:31.342Z,10.60
2019-02-10T06:09:36.341Z,10.70
2019-02-10T06:11:41.281Z,10.70
2019-02-10T06:13:46.220Z,10.70
2019-02-10T06:15:51.176Z,10.70
2019-02-10T06:17:56.212Z,10.70
2019-02-10T06:20:01.190Z,10.70
2019-02-10T06:22:06.245Z,10.70
2019-02-10T06:24:11.162Z,10.70
2019-02-10T06:26:16.146Z,10.70
2019-02-10T06:28:21.165Z,10.70
2019-02-10T06:30:26.167Z,10.80
2019-02-10T06:32:31.110Z,10.80
2019-02-10T06:34:36.147Z,10.80
2019-02-10T06:36:41.064Z,10.80
2019-02-10T06:38:45.978Z,10.80
2019-02-10T06:40:50.945Z,10.80
2019-02-10T06:42:55.875Z,10.80
2019-02-10T06:45:00.814Z,10.80
2019-02-10T06:47:05.968Z,10.90
2019-02-10T06:49:10.893Z,10.90
2019-02-10T06:51:15.883Z,10.90
2019-02-10T06:53:20.830Z,10.90
2019-02-10T06:55:25.766Z,10.90
2019-02-10T06:57:30.702Z,10.90
2019-02-10T07:00:00.903Z,11.00
2019-02-10T07:02:10.384Z,11.00
2019-02-10T07:04:25.289Z,11.00
2019-02-10T07:06:30.335Z,11.00
2019-02-10T07:08:35.330Z,11.00
2019-02-10T07:10:40.351Z,11.00
2019-02-10T07:12:51.105Z,11.00
2019-02-10T07:15:04.231Z,11.00
2019-02-10T07:17:51.344Z,11.10
2019-02-10T07:20:42.898Z,11.10
2019-02-10T07:23:17.089Z,11.10
2019-02-10T07:25:56.826Z,11.10
2019-02-10T07:29:03.148Z,11.10
2019-02-10T07:31:08.478Z,11.10
2019-02-10T07:34:06.156Z,11.10
2019-02-10T07:37:20.578Z,11.10
2019-02-10T07:40:06.451Z,11.10
2019-02-10T07:42:52.158Z,11.10
2019-02-10T07:45:48.990Z,11.20
2019-02-10T07:48:51.653Z,11.20
2019-02-10T07:51:41.116Z,11.20
2019-02-10T07:54:31.241Z,11.20
2019-02-10T07:57:17.138Z,11.20
2019-02-10T08:00:31.515Z,11.20
2019-02-10T08:03:33.148Z,11.20
2019-02-10T08:05:57.054Z,11.30
2019-02-10T08:08:48.683Z,11.30
2019-02-10T08:11:42.338Z,11.30
2019-02-10T08:15:08.093Z,11.30
2019-02-10T08:17:40.326Z,11.30
2019-02-10T08:20:33.022Z,11.40
2019-02-10T08:23:14.718Z,11.40
2019-02-10T08:25:57.094Z,11.40
2019-02-10T08:28:43.152Z,11.40
2019-02-10T08:31:28.204Z,11.50
2019-02-10T08:34:13.622Z,11.40
2019-02-10T08:37:24.897Z,11.50
2019-02-10T08:40:19.235Z,11.50
2019-02-10T08:43:15.686Z,11.50
2019-02-10T08:46:00.474Z,11.60
2019-02-10T08:49:16.219Z,11.60
2019-02-10T08:52:01.971Z,11.60
2019-02-10T08:54:07.901Z,11.60
2019-02-10T08:56:12.919Z,11.60
2019-02-10T08:58:17.921Z,11.60
2019-02-10T09:00:22.904Z,11.60
2019-02-10T09:02:27.864Z,11.70
2019-02-10T09:04:32.805Z,11.70
2019-02-10T09:06:37.749Z,11.70
2019-02-10T09:08:42.729Z,11.70
2019-02-10T09:10:47.720Z,11.70
2019-02-10T09:12:52.687Z,11.70
2019-02-10T09:14:57.703Z,11.80
2019-02-10T09:17:02.758Z,11.80
2019-02-10T09:19:07.882Z,11.80
2019-02-10T09:21:13.010Z,11.80
2019-02-10T09:23:18.169Z,11.90
2019-02-10T09:25:23.272Z,11.90
2019-02-10T09:27:28.278Z,11.90
2019-02-10T09:29:33.336Z,11.90
2019-02-10T09:31:38.495Z,12.00
2019-02-10T09:33:43.565Z,12.00
2019-02-10T09:38:06.510Z,12.00
2019-02-10T09:40:13.607Z,12.10
2019-02-10T09:42:18.978Z,12.10
2019-02-10T09:44:24.785Z,12.10
2019-02-10T09:46:34.159Z,12.10
2019-02-10T09:48:39.677Z,12.10
2019-02-10T09:50:44.860Z,12.20
2019-02-10T09:52:50.503Z,12.20
2019-02-10T09:54:56.857Z,12.20
2019-02-10T09:57:02.189Z,12.20
2019-02-10T09:59:07.288Z,12.20
2019-02-10T10:01:12.564Z,12.30
2019-02-10T10:03:17.780Z,12.30
2019-02-10T10:05:22.983Z,12.30
2019-02-10T10:07:29.133Z,12.30
2019-02-10T10:09:34.334Z,12.30
2019-02-10T10:11:40.037Z,12.30
2019-02-10T10:13:45.212Z,12.30
2019-02-10T10:15:50.148Z,12.30
2019-02-10T10:17:55.276Z,12.30
2019-02-10T10:20:00.650Z,12.30
2019-02-10T10:22:05.821Z,12.30
2019-02-10T10:24:10.749Z,12.40
2019-02-10T10:26:15.783Z,12.30
2019-02-10T10:28:20.877Z,12.30
2019-02-10T10:30:26.142Z,12.40
2019-02-10T10:32:31.130Z,12.40
2019-02-10T10:34:36.052Z,12.40
2019-02-10T10:36:41.286Z,12.40
2019-02-10T10:38:46.406Z,12.40
2019-02-10T10:40:51.435Z,12.40
2019-02-10T10:42:56.528Z,12.40
2019-02-10T10:45:01.529Z,12.40
2019-02-10T10:47:06.647Z,12.40
2019-02-10T10:49:11.840Z,12.50
2019-02-10T10:51:16.882Z,12.40
2019-02-10T10:53:21.802Z,12.40
2019-02-10T10:55:26.964Z,12.40
2019-02-10T10:57:32.025Z,12.40
2019-02-10T10:59:37.062Z,12.50
2019-02-10T11:01:42.122Z,12.40
2019-02-10T11:03:47.138Z,12.50
2019-02-10T11:05:52.327Z,12.50
2019-02-10T11:07:57.316Z,12.50
2019-02-10T11:10:02.346Z,12.50
2019-02-10T11:12:07.506Z,12.50
2019-02-10T11:14:12.558Z,12.50
2019-02-10T11:16:17.577Z,12.50
2019-02-10T11:18:23.072Z,12.50
2019-02-10T11:20:28.885Z,12.50
2019-02-10T11:22:35.530Z,12.50
2019-02-10T11:24:40.709Z,12.50
2019-02-10T11:26:45.959Z,12.50
2019-02-10T11:28:50.954Z,12.50
2019-02-10T11:30:58.953Z,12.50
2019-02-10T11:33:04.107Z,12.50
2019-02-10T11:35:09.769Z,12.50
2019-02-10T11:37:14.861Z,12.50
2019-02-10T11:39:20.025Z,12.50
2019-02-10T11:41:25.023Z,12.50
2019-02-10T11:43:30.038Z,12.50
2019-02-10T11:45:35.129Z,12.50
2019-02-10T11:47:40.290Z,12.50
2019-02-10T11:49:45.283Z,12.50
2019-02-10T11:51:50.505Z,12.50
2019-02-10T11:54:04.529Z,12.60
2019-02-10T11:56:09.598Z,12.60
2019-02-10T11:58:14.553Z,12.60
2019-02-10T12:00:19.801Z,12.60
2019-02-10T12:02:24.733Z,12.50
2019-02-10T12:04:29.719Z,12.60
2019-02-10T12:06:34.830Z,12.60
2019-02-10T12:08:39.875Z,12.60
2019-02-10T12:10:44.885Z,12.60
2019-02-10T12:12:49.914Z,12.60
2019-02-10T12:14:54.922Z,12.60
2019-02-10T12:16:59.948Z,12.60
2019-02-10T12:19:05.217Z,12.60
2019-02-10T12:21:10.276Z,12.60
2019-02-10T12:23:15.435Z,12.60
2019-02-10T12:25:20.380Z,12.60
2019-02-10T12:27:25.451Z,12.60
2019-02-10T12:29:30.634Z,12.60
2019-02-10T12:31:35.639Z,12.50
2019-02-10T12:33:40.644Z,12.50
2019-02-10T12:35:45.716Z,12.50
2019-02-10T12:37:50.746Z,12.50
2019-02-10T12:39:59.793Z,12.50
2019-02-10T12:42:02.570Z,12.50
2019-02-10T12:44:07.604Z,12.50
2019-02-10T12:46:12.635Z,12.50
2019-02-10T12:48:17.715Z,12.50
2019-02-10T12:50:22.818Z,12.50
2019-02-10T12:52:27.855Z,12.50
2019-02-10T12:54:32.938Z,12.50
2019-02-10T12:56:38.199Z,12.40
2019-02-10T12:58:43.117Z,12.40
2019-02-10T13:00:48.290Z,12.40
2019-02-10T13:02:53.443Z,12.40
2019-02-10T13:04:58.351Z,12.40
2019-02-10T13:07:03.306Z,12.40
2019-02-10T13:09:11.996Z,12.40
2019-02-10T13:11:17.065Z,12.40
2019-02-10T13:13:22.343Z,12.40
2019-02-10T13:15:29.064Z,12.30
2019-02-10T13:17:34.153Z,12.40
2019-02-10T13:19:39.163Z,12.30
2019-02-10T13:21:44.236Z,12.30
2019-02-10T13:23:49.331Z,12.30
2019-02-10T13:25:54.549Z,12.30
2019-02-10T13:27:59.735Z,12.20
2019-02-10T13:30:05.897Z,12.20
2019-02-10T13:32:10.881Z,12.20
2019-02-10T13:34:16.499Z,12.20
2019-02-10T13:36:21.663Z,12.20
2019-02-10T13:38:26.665Z,12.10
2019-02-10T13:40:31.671Z,12.20
2019-02-10T13:42:36.651Z,12.10
2019-02-10T13:44:41.751Z,12.10
2019-02-10T13:46:46.790Z,12.10
2019-02-10T13:48:51.820Z,12.10
2019-02-10T13:50:57.327Z,12.10
2019-02-10T13:53:02.416Z,12.00
2019-02-10T13:55:08.520Z,12.00
2019-02-10T13:57:13.502Z,12.00
2019-02-10T13:59:18.498Z,12.00
2019-02-10T14:01:23.501Z,12.00
2019-02-10T14:03:28.474Z,12.00
2019-02-10T14:05:33.391Z,12.00
2019-02-10T14:07:38.403Z,12.00
2019-02-10T14:09:43.400Z,12.00
2019-02-10T14:11:49.371Z,12.00
2019-02-10T14:13:54.594Z,12.00
2019-02-10T14:15:59.519Z,12.00
2019-02-10T14:18:04.608Z,12.00
2019-02-10T14:20:12.877Z,12.00
2019-02-10T14:22:17.896Z,12.00
2019-02-10T14:24:22.819Z,12.00
2019-02-10T14:26:27.730Z,12.00
2019-02-10T14:28:32.681Z,12.00
2019-02-10T14:30:37.704Z,12.00
2019-02-10T14:32:42.760Z,12.00
2019-02-10T14:34:47.780Z,11.90
2019-02-10T14:36:52.717Z,11.90
2019-02-10T14:38:57.726Z,11.90
2019-02-10T14:41:02.733Z,12.00
2019-02-10T14:43:07.804Z,11.90
2019-02-10T14:45:13.340Z,11.90
2019-02-10T14:47:18.406Z,11.90
2019-02-10T14:49:24.030Z,11.90
2019-02-10T14:51:28.974Z,11.90
2019-02-10T14:53:33.921Z,11.90
2019-02-10T14:55:38.980Z,11.90
2019-02-10T14:57:43.983Z,11.90
2019-02-10T14:59:49.318Z,11.90
2019-02-10T15:01:54.307Z,11.90
2019-02-10T15:03:59.265Z,11.90
2019-02-10T15:06:04.439Z,11.90
2019-02-10T15:08:09.596Z,11.90
2019-02-10T15:10:15.117Z,11.90
2019-02-10T15:12:20.129Z,11.90
2019-02-10T15:14:25.096Z,11.90
2019-02-10T15:16:30.085Z,11.90
2019-02-10T15:18:35.180Z,11.80
2019-02-10T15:20:40.137Z,11.80
2019-02-10T15:22:45.155Z,11.80
2019-02-10T15:24:50.276Z,11.80
2019-02-10T15:26:55.195Z,11.80
2019-02-10T15:29:00.215Z,11.80
2019-02-10T15:31:05.272Z,11.80
2019-02-10T15:33:10.285Z,11.80
2019-02-10T15:35:15.478Z,11.70
2019-02-10T15:37:20.382Z,11.80
2019-02-10T15:39:25.366Z,11.70
2019-02-10T15:41:30.368Z,11.70
2019-02-10T15:43:35.384Z,11.70
2019-02-10T15:45:40.291Z,11.70
2019-02-10T15:47:45.378Z,11.60
2019-02-10T15:49:50.429Z,11.60
2019-02-10T15:51:55.419Z,11.60
2019-02-10T15:54:00.716Z,11.60
2019-02-10T15:56:05.773Z,11.50
2019-02-10T15:58:10.768Z,11.50
2019-02-10T16:00:19.193Z,11.50
2019-02-10T16:02:24.389Z,11.50
2019-02-10T16:04:29.529Z,11.40
2019-02-10T16:06:34.557Z,11.40
2019-02-10T16:08:39.526Z,11.40
2019-02-10T16:10:44.515Z,11.40
2019-02-10T16:12:49.531Z,11.40
2019-02-10T16:14:54.579Z,11.30
2019-02-10T16:16:59.576Z,11.30
2019-02-10T16:19:04.619Z,11.30
2019-02-10T16:21:09.764Z,11.30
2019-02-10T16:23:14.700Z,11.30
2019-02-10T16:25:19.629Z,11.30
2019-02-10T16:27:24.610Z,11.30
2019-02-10T16:29:29.799Z,11.30
2019-02-10T16:31:34.713Z,11.20
2019-02-10T16:33:39.707Z,11.20
2019-02-10T16:35:44.708Z,11.20
2019-02-10T16:37:49.882Z,11.20
2019-02-10T16:39:54.786Z,11.20
2019-02-10T16:41:59.759Z,11.10
2019-02-10T16:44:05.575Z,11.10
2019-02-10T16:46:10.587Z,11.10
2019-02-10T16:48:15.684Z,11.10
2019-02-10T16:50:20.728Z,11.00
2019-02-10T16:52:25.805Z,11.00
2019-02-10T16:54:30.759Z,11.00
2019-02-10T16:56:35.812Z,11.00
2019-02-10T16:58:41.163Z,11.00
2019-02-10T17:00:46.448Z,11.00
2019-02-10T17:02:51.446Z,10.90
2019-02-10T17:04:56.413Z,10.90
2019-02-10T17:07:01.313Z,10.90
2019-02-10T17:09:07.569Z,10.90
2019-02-10T17:11:14.344Z,10.90
2019-02-10T17:13:19.542Z,10.80
2019-02-10T17:15:24.702Z,10.80
2019-02-10T17:17:29.710Z,10.80
2019-02-10T17:19:34.785Z,10.80
2019-02-10T17:21:39.764Z,10.70
2019-02-10T17:23:44.788Z,10.70
2019-02-10T17:25:49.739Z,10.70
2019-02-10T17:27:54.873Z,10.70
2019-02-10T17:29:59.869Z,10.70
2019-02-10T17:32:04.865Z,10.60
2019-02-10T17:34:09.948Z,10.60
2019-02-10T17:36:16.411Z,10.60
2019-02-10T17:38:21.456Z,10.60
2019-02-10T17:40:35.437Z,10.60
2019-02-10T17:42:40.485Z,10.50
2019-02-10T17:44:45.466Z,10.50
2019-02-10T17:46:50.922Z,10.50
2019-02-10T17:48:55.926Z,10.50
2019-02-10T17:51:01.062Z,10.50
2019-02-10T17:53:06.157Z,10.50
2019-02-10T17:55:11.331Z,10.50
2019-02-10T17:57:16.234Z,10.50
2019-02-10T17:59:21.231Z,10.50
2019-02-10T18:01:26.332Z,10.40
2019-02-10T18:03:31.343Z,10.40
2019-02-10T18:05:36.516Z,10.40
2019-02-10T18:07:41.599Z,10.40
2019-02-10T18:09:46.662Z,10.40
2019-02-10T18:11:51.652Z,10.40
2019-02-10T18:13:56.641Z,10.40
2019-02-10T18:16:19.815Z,10.30
2019-02-10T18:18:37.531Z,10.40
2019-02-10T18:21:01.690Z,10.30
2019-02-10T18:23:15.414Z,10.30
2019-02-10T18:25:36.109Z,10.30
2019-02-10T18:28:15.386Z,10.30
2019-02-10T18:30:39.488Z,10.30
2019-02-10T18:33:04.573Z,10.30
2019-02-10T18:35:31.876Z,10.20
2019-02-10T18:37:43.457Z,10.30
2019-02-10T18:40:10.396Z,10.20
2019-02-10T18:42:34.073Z,10.20
2019-02-10T18:44:58.356Z,10.20
2019-02-10T18:47:21.053Z,10.20
2019-02-10T18:49:48.089Z,10.10
2019-02-10T18:52:09.121Z,10.10
2019-02-10T18:54:33.067Z,10.10
2019-02-10T18:56:55.954Z,10.10
2019-02-10T18:59:08.681Z,10.00
2019-02-10T19:01:22.293Z,10.00
2019-02-10T19:03:35.531Z,10.00
2019-02-10T19:05:57.620Z,10.00
2019-02-10T19:08:24.427Z,10.00
2019-02-10T19:10:37.398Z,10.00
2019-02-10T19:13:04.206Z,9.90
2019-02-10T19:15:31.299Z,9.90
2019-02-10T19:18:01.115Z,9.90
2019-02-10T19:20:42.084Z,9.90
2019-02-10T19:23:09.090Z,9.90
2019-02-10T19:25:20.917Z,9.80
2019-02-10T19:27:39.080Z,9.80
2019-02-10T19:30:02.063Z,9.80
2019-02-10T19:32:44.506Z,9.80
2019-02-10T19:35:08.445Z,9.80
2019-02-10T19:37:35.237Z,9.70
2019-02-10T19:40:08.237Z,9.70
2019-02-10T19:42:36.268Z,9.70
2019-02-10T19:45:12.329Z,9.70
2019-02-10T19:47:25.514Z,9.70
2019-02-10T19:49:55.893Z,9.60
2019-02-10T19:52:08.776Z,9.60
2019-02-10T19:54:20.864Z,9.60
2019-02-10T19:56:45.137Z,9.60
2019-02-10T19:59:08.065Z,9.60
2019-02-10T20:01:50.476Z,9.60
2019-02-10T20:04:17.210Z,9.60
2019-02-10T20:06:30.120Z,9.60
2019-02-10T20:08:45.499Z,9.60
2019-02-10T20:11:03.752Z,9.50
2019-02-10T20:13:27.106Z,9.50
2019-02-10T20:15:40.444Z,9.50
2019-02-10T20:17:59.458Z,9.50
2019-02-10T20:20:27.008Z,9.50
2019-02-10T20:22:52.021Z,9.50
2019-02-10T20:25:18.852Z,9.50
2019-02-10T20:28:00.887Z,9.50
2019-02-10T20:30:24.653Z,9.50
2019-02-10T20:32:54.613Z,9.40
2019-02-10T20:35:11.837Z,9.40
2019-02-10T20:37:22.220Z,9.40
2019-02-10T20:39:36.047Z,9.40
2019-02-10T20:41:48.289Z,9.40
2019-02-10T20:44:10.907Z,9.40
2019-02-10T20:46:30.208Z,9.40
2019-02-10T20:48:42.832Z,9.30
2019-02-10T20:50:54.540Z,9.30
2019-02-10T20:53:21.116Z,9.30
2019-02-10T20:55:31.822Z,9.30
2019-02-10T20:58:01.885Z,9.20
2019-02-10T21:00:26.740Z,9.20
2019-02-10T21:02:40.239Z,9.20
2019-02-10T21:05:03.351Z,9.20
2019-02-10T21:07:16.939Z,9.20
2019-02-10T21:09:48.106Z,9.10
2019-02-10T21:12:30.231Z,9.10
2019-02-10T21:15:03.054Z,9.10
2019-02-10T21:17:25.349Z,9.00
2019-02-10T21:19:58.378Z,9.00
2019-02-10T21:24:33.487Z,9.00
2019-02-10T21:26:46.228Z,8.90
2019-02-10T21:29:11.735Z,8.90
2019-02-10T21:31:34.686Z,8.90
2019-02-10T21:33:58.852Z,8.80
2019-02-10T21:36:14.719Z,8.80
2019-02-10T21:38:36.206Z,8.80
2019-02-10T21:41:07.323Z,8.80
2019-02-10T21:43:18.996Z,8.70
2019-02-10T21:45:41.925Z,8.80
2019-02-10T21:47:54.841Z,8.70
2019-02-10T21:50:00.009Z,8.70
2019-02-10T21:52:04.991Z,8.60
2019-02-10T21:54:09.991Z,8.60
2019-02-10T21:56:15.296Z,8.60
2019-02-10T21:58:20.215Z,8.60
2019-02-10T22:00:25.300Z,8.60
2019-02-10T22:02:30.299Z,8.60
2019-02-10T22:04:35.269Z,8.50
2019-02-10T22:06:40.298Z,8.50
2019-02-10T22:08:45.245Z,8.50
2019-02-10T22:10:50.196Z,8.50
2019-02-10T22:12:55.197Z,8.50
2019-02-10T22:15:00.253Z,8.40
2019-02-10T22:17:05.611Z,8.40
2019-02-10T22:19:10.528Z,8.40
2019-02-10T22:21:34.720Z,8.40
2019-02-10T22:23:39.658Z,8.40
2019-02-10T22:25:44.802Z,8.30
2019-02-10T22:27:49.857Z,8.30
2019-02-10T22:29:54.791Z,8.30
2019-02-10T22:31:59.728Z,8.30
2019-02-10T22:34:04.784Z,8.20
2019-02-10T22:36:09.985Z,8.20
2019-02-10T22:38:14.917Z,8.20
2019-02-10T22:40:19.832Z,8.10
2019-02-10T22:42:24.840Z,8.10
2019-02-10T22:44:29.849Z,8.10
2019-02-10T22:46:34.942Z,8.00
2019-02-10T22:48:39.852Z,8.00
2019-02-10T22:50:44.874Z,8.00
2019-02-10T22:52:50.039Z,8.00
2019-02-10T22:54:54.940Z,7.90
2019-02-10T22:56:59.883Z,7.90
2019-02-10T22:59:05.004Z,7.90
2019-02-10T23:01:10.158Z,7.80
2019-02-10T23:03:15.526Z,7.80
2019-02-10T23:05:20.556Z,7.80
2019-02-10T23:07:25.587Z,7.80
2019-02-10T23:09:30.520Z,7.70
2019-02-10T23:11:35.506Z,7.70
2019-02-10T23:13:40.397Z,7.70
2019-02-10T23:15:45.532Z,7.70
2019-02-10T23:17:50.517Z,7.70
2019-02-10T23:19:55.467Z,7.60
2019-02-10T23:22:00.538Z,7.60
2019-02-10T23:24:05.681Z,7.60
2019-02-10T23:26:10.702Z,7.50
2019-02-10T23:28:15.699Z,7.50
2019-02-10T23:30:20.887Z,7.50
2019-02-10T23:32:25.901Z,7.40
2019-02-10T23:34:30.864Z,7.40
2019-02-10T23:36:35.961Z,7.30
2019-02-10T23:38:40.991Z,7.30
2019-02-10T23:40:46.013Z,7.30
2019-02-10T23:42:51.004Z,7.30
2019-02-10T23:44:56.025Z,7.30
2019-02-10T23:47:00.977Z,7.20
2019-02-10T23:49:05.965Z,7.20
2019-02-10T23:51:10.988Z,7.20
2019-02-10T23:53:15.965Z,7.20
2019-02-10T23:55:21.320Z,7.10
2019-02-10T23:57:26.441Z,7.10
2019-02-10T23:59:32.078Z,7.10
